Hulst, Netherlands
Current Conditions -  °F | °C
As of 12:55 AM on Wednesday 26 Nov 2014 (Local Time) from EHWO Reporting Station
Overcast Overcast  
Wind Chill: 35°   Ceiling: 15000
Heat Index: 41°   Visibility: 6mi
Dew Point: 36°   Wind: 9mph
Humidity: 81%   Direction: 90°E
Pressure: 30.03"   Gusts: NA
Location:  51.28°N, 4.05°E
Report Text: EHWO 252355Z AUTO 09008KT 9999 OVC150 05/02 Q1017 BLU
Loading
Personal Weather Stations






























Interactive Weather Map New forecast layout! Learn more

10-Day Weather Forecast

Advertisements
Track Severe Weather on mobile